sensor_id;sensor_type;location;lat;lon;timestamp;pressure;altitude;pressure_sealevel;temperature
24740;BMP280;45234;48.148;17.128;2022-11-15T00:00:59;100366.03;;;6.69
24740;BMP280;45234;48.148;17.128;2022-11-15T00:03:45;100356.03;;;6.66
24740;BMP280;45234;48.148;17.128;2022-11-15T00:06:31;100365.16;;;6.52
24740;BMP280;45234;48.148;17.128;2022-11-15T00:09:16;100354.34;;;6.41
24740;BMP280;45234;48.148;17.128;2022-11-15T00:12:02;100370.75;;;6.40
24740;BMP280;45234;48.148;17.128;2022-11-15T00:14:48;100369.13;;;6.39
24740;BMP280;45234;48.148;17.128;2022-11-15T00:17:33;100375.78;;;6.23
24740;BMP280;45234;48.148;17.128;2022-11-15T00:20:18;100374.47;;;6.19
24740;BMP280;45234;48.148;17.128;2022-11-15T00:23:04;100363.88;;;6.22
24740;BMP280;45234;48.148;17.128;2022-11-15T00:25:56;100360.34;;;6.23
24740;BMP280;45234;48.148;17.128;2022-11-15T00:28:42;100357.50;;;6.34
24740;BMP280;45234;48.148;17.128;2022-11-15T00:31:27;100343.38;;;6.39
24740;BMP280;45234;48.148;17.128;2022-11-15T00:34:13;100345.00;;;6.40
24740;BMP280;45234;48.148;17.128;2022-11-15T00:36:59;100355.78;;;6.43
24740;BMP280;45234;48.148;17.128;2022-11-15T00:39:44;100346.28;;;6.44
24740;BMP280;45234;48.148;17.128;2022-11-15T00:42:29;100342.56;;;6.46
24740;BMP280;45234;48.148;17.128;2022-11-15T00:45:15;100338.72;;;6.42
24740;BMP280;45234;48.148;17.128;2022-11-15T00:48:00;100341.16;;;6.44
24740;BMP280;45234;48.148;17.128;2022-11-15T00:50:45;100341.16;;;6.44
24740;BMP280;45234;48.148;17.128;2022-11-15T00:53:31;100337.69;;;6.27
24740;BMP280;45234;48.148;17.128;2022-11-15T00:56:17;100334.28;;;6.26
24740;BMP280;45234;48.148;17.128;2022-11-15T00:59:03;100339.16;;;6.29
24740;BMP280;45234;48.148;17.128;2022-11-15T01:01:48;100337.25;;;6.31
24740;BMP280;45234;48.148;17.128;2022-11-15T01:04:33;100343.06;;;6.42
24740;BMP280;45234;48.148;17.128;2022-11-15T01:07:19;100341.97;;;6.52
24740;BMP280;45234;48.148;17.128;2022-11-15T01:10:05;100329.91;;;6.53
24740;BMP280;45234;48.148;17.128;2022-11-15T01:12:51;100324.94;;;6.59
24740;BMP280;45234;48.148;17.128;2022-11-15T01:15:40;100315.44;;;6.60
24740;BMP280;45234;48.148;17.128;2022-11-15T01:18:25;100306.75;;;6.61
24740;BMP280;45234;48.148;17.128;2022-11-15T01:21:17;100304.66;;;6.56
24740;BMP280;45234;48.148;17.128;2022-11-15T01:24:02;100310.28;;;6.52
24740;BMP280;45234;48.148;17.128;2022-11-15T01:26:47;100299.31;;;6.42
24740;BMP280;45234;48.148;17.128;2022-11-15T01:29:33;100302.31;;;6.29
24740;BMP280;45234;48.148;17.128;2022-11-15T01:32:19;100304.03;;;6.20
24740;BMP280;45234;48.148;17.128;2022-11-15T01:35:09;100302.72;;;6.16
24740;BMP280;45234;48.148;17.128;2022-11-15T01:37:54;100299.69;;;6.21
24740;BMP280;45234;48.148;17.128;2022-11-15T01:40:41;100309.78;;;6.14
24740;BMP280;45234;48.148;17.128;2022-11-15T01:43:32;100306.56;;;6.12
24740;BMP280;45234;48.148;17.128;2022-11-15T01:46:32;100306.44;;;6.22
24740;BMP280;45234;48.148;17.128;2022-11-15T01:49:21;100295.88;;;6.33
24740;BMP280;45234;48.148;17.128;2022-11-15T01:52:13;100296.41;;;6.45
24740;BMP280;45234;48.148;17.128;2022-11-15T01:58:06;100281.94;;;6.52
24740;BMP280;45234;48.148;17.128;2022-11-15T02:00:52;100279.41;;;6.60
24740;BMP280;45234;48.148;17.128;2022-11-15T02:03:59;100280.84;;;6.62
24740;BMP280;45234;48.148;17.128;2022-11-15T02:06:47;100278.44;;;6.69
24740;BMP280;45234;48.148;17.128;2022-11-15T02:09:33;100277.00;;;6.66
24740;BMP280;45234;48.148;17.128;2022-11-15T02:12:21;100279.59;;;6.75
24740;BMP280;45234;48.148;17.128;2022-11-15T02:15:08;100280.09;;;6.86
24740;BMP280;45234;48.148;17.128;2022-11-15T02:21:40;100270.38;;;6.64
24740;BMP280;45234;48.148;17.128;2022-11-15T02:24:57;100277.50;;;6.78
24740;BMP280;45234;48.148;17.128;2022-11-15T02:28:15;100267.84;;;6.88
24740;BMP280;45234;48.148;17.128;2022-11-15T02:31:28;100265.91;;;6.90
24740;BMP280;45234;48.148;17.128;2022-11-15T02:37:45;100273.19;;;6.95
24740;BMP280;45234;48.148;17.128;2022-11-15T02:40:44;100259.66;;;6.93
24740;BMP280;45234;48.148;17.128;2022-11-15T02:43:51;100279.97;;;7.04
24740;BMP280;45234;48.148;17.128;2022-11-15T02:47:02;100280.09;;;7.11
24740;BMP280;45234;48.148;17.128;2022-11-15T02:50:03;100275.78;;;7.19
24740;BMP280;45234;48.148;17.128;2022-11-15T02:52:52;100268.03;;;7.27
24740;BMP280;45234;48.148;17.128;2022-11-15T02:55:43;100258.69;;;7.35
24740;BMP280;45234;48.148;17.128;2022-11-15T02:59:28;100254.81;;;7.22
24740;BMP280;45234;48.148;17.128;2022-11-15T03:02:23;100256.94;;;7.19
24740;BMP280;45234;48.148;17.128;2022-11-15T03:05:28;100252.91;;;7.08
24740;BMP280;45234;48.148;17.128;2022-11-15T03:11:13;100255.97;;;7.04
24740;BMP280;45234;48.148;17.128;2022-11-15T03:16:58;100251.09;;;7.00
24740;BMP280;45234;48.148;17.128;2022-11-15T03:19:55;100255.63;;;7.23
24740;BMP280;45234;48.148;17.128;2022-11-15T03:22:44;100256.13;;;7.26
24740;BMP280;45234;48.148;17.128;2022-11-15T03:25:32;100246.63;;;7.27
24740;BMP280;45234;48.148;17.128;2022-11-15T03:28:23;100244.34;;;7.32
24740;BMP280;45234;48.148;17.128;2022-11-15T03:31:13;100246.91;;;7.40
24740;BMP280;45234;48.148;17.128;2022-11-15T03:34:28;100253.03;;;7.47
24740;BMP280;45234;48.148;17.128;2022-11-15T03:37:15;100249.19;;;7.35
24740;BMP280;45234;48.148;17.128;2022-11-15T03:40:03;100238.72;;;7.28
24740;BMP280;45234;48.148;17.128;2022-11-15T03:43:07;100234.03;;;7.24
24740;BMP280;45234;48.148;17.128;2022-11-15T03:46:05;100227.09;;;7.32
24740;BMP280;45234;48.148;17.128;2022-11-15T03:48:56;100210.53;;;7.19
24740;BMP280;45234;48.148;17.128;2022-11-15T03:51:42;100226.28;;;7.32
24740;BMP280;45234;48.148;17.128;2022-11-15T03:54:28;100218.09;;;7.45
24740;BMP280;45234;48.148;17.128;2022-11-15T03:57:13;100220.22;;;7.33
24740;BMP280;45234;48.148;17.128;2022-11-15T03:59:58;100228.88;;;7.32
24740;BMP280;45234;48.148;17.128;2022-11-15T04:02:43;100219.22;;;7.26
24740;BMP280;45234;48.148;17.128;2022-11-15T04:05:29;100211.50;;;7.26
24740;BMP280;45234;48.148;17.128;2022-11-15T04:08:14;100196.97;;;7.25
24740;BMP280;45234;48.148;17.128;2022-11-15T04:10:59;100203.75;;;7.26
24740;BMP280;45234;48.148;17.128;2022-11-15T04:13:46;100203.09;;;7.32
24740;BMP280;45234;48.148;17.128;2022-11-15T04:16:31;100201.31;;;7.41
24740;BMP280;45234;48.148;17.128;2022-11-15T04:19:17;100198.69;;;7.49
24740;BMP280;45234;48.148;17.128;2022-11-15T04:22:21;100186.97;;;7.22
24740;BMP280;45234;48.148;17.128;2022-11-15T04:25:26;100181.81;;;7.22
24740;BMP280;45234;48.148;17.128;2022-11-15T04:28:16;100192.75;;;7.40
24740;BMP280;45234;48.148;17.128;2022-11-15T04:31:01;100186.78;;;7.48
24740;BMP280;45234;48.148;17.128;2022-11-15T04:33:46;100187.94;;;7.45
24740;BMP280;45234;48.148;17.128;2022-11-15T04:36:31;100184.88;;;7.33
24740;BMP280;45234;48.148;17.128;2022-11-15T04:39:37;100171.16;;;7.41
24740;BMP280;45234;48.148;17.128;2022-11-15T04:42:22;100177.94;;;7.42
24740;BMP280;45234;48.148;17.128;2022-11-15T04:45:08;100181.19;;;7.44
24740;BMP280;45234;48.148;17.128;2022-11-15T04:47:53;100185.63;;;7.50
24740;BMP280;45234;48.148;17.128;2022-11-15T04:50:38;100174.69;;;7.56
24740;BMP280;45234;48.148;17.128;2022-11-15T04:53:23;100165.94;;;7.66
24740;BMP280;45234;48.148;17.128;2022-11-15T04:56:08;100174.50;;;7.66
24740;BMP280;45234;48.148;17.128;2022-11-15T04:58:54;100171.59;;;7.61
24740;BMP280;45234;48.148;17.128;2022-11-15T05:01:39;100178.03;;;7.65
24740;BMP280;45234;48.148;17.128;2022-11-15T05:04:34;100176.28;;;7.66
24740;BMP280;45234;48.148;17.128;2022-11-15T05:07:19;100174.31;;;7.68
24740;BMP280;45234;48.148;17.128;2022-11-15T05:10:05;100174.44;;;7.74
24740;BMP280;45234;48.148;17.128;2022-11-15T05:12:50;100159.81;;;7.67
24740;BMP280;45234;48.148;17.128;2022-11-15T05:15:36;100149.81;;;7.63
24740;BMP280;45234;48.148;17.128;2022-11-15T05:18:22;100152.88;;;7.59
24740;BMP280;45234;48.148;17.128;2022-11-15T05:21:10;100161.59;;;7.58
24740;BMP280;45234;48.148;17.128;2022-11-15T05:23:55;100165.41;;;7.70
24740;BMP280;45234;48.148;17.128;2022-11-15T05:26:41;100159.84;;;7.50
24740;BMP280;45234;48.148;17.128;2022-11-15T05:29:26;100155.03;;;7.47
24740;BMP280;45234;48.148;17.128;2022-11-15T05:32:12;100138.94;;;7.37
24740;BMP280;45234;48.148;17.128;2022-11-15T05:34:57;100137.63;;;7.41
24740;BMP280;45234;48.148;17.128;2022-11-15T05:37:45;100133.78;;;7.37
24740;BMP280;45234;48.148;17.128;2022-11-15T05:40:32;100131.53;;;7.34
24740;BMP280;45234;48.148;17.128;2022-11-15T05:43:18;100134.75;;;7.44
24740;BMP280;45234;48.148;17.128;2022-11-15T05:46:04;100133.72;;;7.53
24740;BMP280;45234;48.148;17.128;2022-11-15T05:48:52;100136.78;;;7.57
24740;BMP280;45234;48.148;17.128;2022-11-15T05:51:40;100147.22;;;7.63
24740;BMP280;45234;48.148;17.128;2022-11-15T05:54:26;100136.88;;;7.72
24740;BMP280;45234;48.148;17.128;2022-11-15T05:57:13;100141.06;;;7.73
24740;BMP280;45234;48.148;17.128;2022-11-15T05:59:58;100139.13;;;7.75
24740;BMP280;45234;48.148;17.128;2022-11-15T06:02:45;100135.44;;;7.77
24740;BMP280;45234;48.148;17.128;2022-11-15T06:05:30;100133.97;;;7.75
24740;BMP280;45234;48.148;17.128;2022-11-15T06:08:15;100141.81;;;7.81
24740;BMP280;45234;48.148;17.128;2022-11-15T06:11:07;100145.59;;;7.71
24740;BMP280;45234;48.148;17.128;2022-11-15T06:13:52;100144.56;;;7.80
24740;BMP280;45234;48.148;17.128;2022-11-15T06:16:39;100140.75;;;7.76
24740;BMP280;45234;48.148;17.128;2022-11-15T06:19:24;100145.25;;;7.74
24740;BMP280;45234;48.148;17.128;2022-11-15T06:22:09;100149.41;;;7.83
24740;BMP280;45234;48.148;17.128;2022-11-15T06:24:55;100143.97;;;7.78
24740;BMP280;45234;48.148;17.128;2022-11-15T06:27:51;100148.97;;;7.79
24740;BMP280;45234;48.148;17.128;2022-11-15T06:30:37;100143.91;;;7.86
24740;BMP280;45234;48.148;17.128;2022-11-15T06:33:23;100135.22;;;7.87
24740;BMP280;45234;48.148;17.128;2022-11-15T06:36:11;100136.44;;;7.91
24740;BMP280;45234;48.148;17.128;2022-11-15T06:39:03;100142.03;;;8.03
24740;BMP280;45234;48.148;17.128;2022-11-15T06:41:49;100147.59;;;8.14
24740;BMP280;45234;48.148;17.128;2022-11-15T06:44:34;100136.47;;;8.22
24740;BMP280;45234;48.148;17.128;2022-11-15T06:47:20;100136.81;;;8.34
24740;BMP280;45234;48.148;17.128;2022-11-15T06:50:06;100130.88;;;8.33
24740;BMP280;45234;48.148;17.128;2022-11-15T06:52:51;100136.81;;;8.34
24740;BMP280;45234;48.148;17.128;2022-11-15T06:55:38;100133.66;;;8.32
24740;BMP280;45234;48.148;17.128;2022-11-15T06:58:23;100138.00;;;8.31
24740;BMP280;45234;48.148;17.128;2022-11-15T07:01:11;100143.16;;;8.31
24740;BMP280;45234;48.148;17.128;2022-11-15T07:03:57;100137.47;;;8.36
24740;BMP280;45234;48.148;17.128;2022-11-15T07:06:46;100122.59;;;8.38
24740;BMP280;45234;48.148;17.128;2022-11-15T07:09:32;100124.19;;;8.39
24740;BMP280;45234;48.148;17.128;2022-11-15T07:12:19;100139.31;;;8.50
24740;BMP280;45234;48.148;17.128;2022-11-15T07:15:04;100127.63;;;8.54
24740;BMP280;45234;48.148;17.128;2022-11-15T07:17:50;100122.84;;;8.51
24740;BMP280;45234;48.148;17.128;2022-11-15T07:20:36;100118.47;;;8.51
24740;BMP280;45234;48.148;17.128;2022-11-15T07:23:21;100110.41;;;8.46
24740;BMP280;45234;48.148;17.128;2022-11-15T07:26:08;100117.69;;;8.51
24740;BMP280;45234;48.148;17.128;2022-11-15T07:28:54;100120.16;;;8.59
24740;BMP280;45234;48.148;17.128;2022-11-15T07:31:39;100124.34;;;8.60
24740;BMP280;45234;48.148;17.128;2022-11-15T07:34:25;100131.16;;;8.61
24740;BMP280;45234;48.148;17.128;2022-11-15T07:37:11;100127.22;;;8.50
24740;BMP280;45234;48.148;17.128;2022-11-15T07:39:56;100124.13;;;8.47
24740;BMP280;45234;48.148;17.128;2022-11-15T07:42:42;100124.53;;;8.58
24740;BMP280;45234;48.148;17.128;2022-11-15T07:45:44;100122.44;;;8.62
24740;BMP280;45234;48.148;17.128;2022-11-15T07:48:30;100121.44;;;8.63
24740;BMP280;45234;48.148;17.128;2022-11-15T07:51:29;100126.72;;;8.47
24740;BMP280;45234;48.148;17.128;2022-11-15T07:54:15;100116.88;;;8.50
24740;BMP280;45234;48.148;17.128;2022-11-15T07:57:00;100119.03;;;8.61
24740;BMP280;45234;48.148;17.128;2022-11-15T07:59:51;100127.28;;;8.57
24740;BMP280;45234;48.148;17.128;2022-11-15T08:02:36;100122.03;;;8.50
24740;BMP280;45234;48.148;17.128;2022-11-15T08:05:22;100127.34;;;8.49
24740;BMP280;45234;48.148;17.128;2022-11-15T08:08:09;100133.19;;;8.51
24740;BMP280;45234;48.148;17.128;2022-11-15T08:10:57;100129.88;;;8.57
24740;BMP280;45234;48.148;17.128;2022-11-15T08:13:42;100125.44;;;8.66
24740;BMP280;45234;48.148;17.128;2022-11-15T08:16:27;100125.44;;;8.66
24740;BMP280;45234;48.148;17.128;2022-11-15T08:19:13;100115.09;;;8.66
24740;BMP280;45234;48.148;17.128;2022-11-15T08:21:59;100118.66;;;8.65
24740;BMP280;45234;48.148;17.128;2022-11-15T08:24:46;100120.16;;;8.59
24740;BMP280;45234;48.148;17.128;2022-11-15T08:27:31;100124.69;;;8.57
24740;BMP280;45234;48.148;17.128;2022-11-15T08:30:17;100132.69;;;8.47
24740;BMP280;45234;48.148;17.128;2022-11-15T08:33:03;100116.38;;;8.47
24740;BMP280;45234;48.148;17.128;2022-11-15T08:35:48;100119.31;;;8.44
24740;BMP280;45234;48.148;17.128;2022-11-15T08:38:34;100113.75;;;8.55
24740;BMP280;45234;48.148;17.128;2022-11-15T08:41:32;100107.59;;;8.41
24740;BMP280;45234;48.148;17.128;2022-11-15T08:44:19;100107.66;;;8.48
24740;BMP280;45234;48.148;17.128;2022-11-15T08:47:04;100106.38;;;8.52
24740;BMP280;45234;48.148;17.128;2022-11-15T08:49:50;100101.94;;;8.60
24740;BMP280;45234;48.148;17.128;2022-11-15T08:52:35;100100.84;;;8.70
24740;BMP280;45234;48.148;17.128;2022-11-15T08:55:20;100096.03;;;8.67
24740;BMP280;45234;48.148;17.128;2022-11-15T08:58:09;100096.34;;;8.49
24740;BMP280;45234;48.148;17.128;2022-11-15T09:00:56;100095.47;;;8.56
24740;BMP280;45234;48.148;17.128;2022-11-15T09:03:41;100096.22;;;8.65
24740;BMP280;45234;48.148;17.128;2022-11-15T09:06:26;100094.19;;;8.75
24740;BMP280;45234;48.148;17.128;2022-11-15T09:09:12;100097.03;;;8.80
24740;BMP280;45234;48.148;17.128;2022-11-15T09:11:57;100082.69;;;8.78
24740;BMP280;45234;48.148;17.128;2022-11-15T09:14:47;100089.97;;;8.74
24740;BMP280;45234;48.148;17.128;2022-11-15T09:17:32;100082.34;;;8.81
24740;BMP280;45234;48.148;17.128;2022-11-15T09:20:17;100079.56;;;8.97
24740;BMP280;45234;48.148;17.128;2022-11-15T09:23:04;100089.91;;;9.12
24740;BMP280;45234;48.148;17.128;2022-11-15T09:25:49;100087.50;;;9.10
24740;BMP280;45234;48.148;17.128;2022-11-15T09:28:35;100087.41;;;9.18
24740;BMP280;45234;48.148;17.128;2022-11-15T09:31:21;100079.63;;;9.33
24740;BMP280;45234;48.148;17.128;2022-11-15T09:34:06;100074.75;;;9.38
24740;BMP280;45234;48.148;17.128;2022-11-15T09:36:51;100076.69;;;9.36
24740;BMP280;45234;48.148;17.128;2022-11-15T09:39:37;100075.53;;;9.39
24740;BMP280;45234;48.148;17.128;2022-11-15T09:51:34;100040.94;;;9.25
24740;BMP280;45234;48.148;17.128;2022-11-15T09:56:57;100039.91;;;9.05
24740;BMP280;45234;48.148;17.128;2022-11-15T10:05:00;100014.34;;;9.46
24740;BMP280;45234;48.148;17.128;2022-11-15T10:07:44;100005.38;;;9.70
24740;BMP280;45234;48.148;17.128;2022-11-15T10:10:39;99998.81;;;9.95
24740;BMP280;45234;48.148;17.128;2022-11-15T10:13:16;99998.78;;;10.16
24740;BMP280;45234;48.148;17.128;2022-11-15T10:15:47;99999.13;;;10.35
24740;BMP280;45234;48.148;17.128;2022-11-15T10:18:36;99999.88;;;10.63
24740;BMP280;45234;48.148;17.128;2022-11-15T10:21:23;99994.91;;;10.68
24740;BMP280;45234;48.148;17.128;2022-11-15T10:23:53;99994.53;;;10.78
24740;BMP280;45234;48.148;17.128;2022-11-15T10:26:23;99986.25;;;10.95
24740;BMP280;45234;48.148;17.128;2022-11-15T10:28:50;99986.88;;;11.11
24740;BMP280;45234;48.148;17.128;2022-11-15T10:31:28;99981.81;;;10.89
24740;BMP280;45234;48.148;17.128;2022-11-15T10:34:17;99988.66;;;10.56
24740;BMP280;45234;48.148;17.128;2022-11-15T10:36:59;99982.72;;;10.27
24740;BMP280;45234;48.148;17.128;2022-11-15T10:39:30;99983.16;;;10.38
24740;BMP280;45234;48.148;17.128;2022-11-15T10:41:57;99977.31;;;10.22
24740;BMP280;45234;48.148;17.128;2022-11-15T10:44:42;99972.56;;;9.98
24740;BMP280;45234;48.148;17.128;2022-11-15T10:49:59;99964.75;;;10.19
24740;BMP280;45234;48.148;17.128;2022-11-15T10:52:27;99964.00;;;10.25
24740;BMP280;45234;48.148;17.128;2022-11-15T10:57:50;99960.13;;;10.49
24740;BMP280;45234;48.148;17.128;2022-11-15T11:05:33;99944.53;;;10.36
24740;BMP280;45234;48.148;17.128;2022-11-15T11:10:38;99947.69;;;10.32
24740;BMP280;45234;48.148;17.128;2022-11-15T11:16:22;99931.06;;;10.19
24740;BMP280;45234;48.148;17.128;2022-11-15T11:22:16;99920.28;;;10.09
24740;BMP280;45234;48.148;17.128;2022-11-15T11:38:40;99907.38;;;10.29
24740;BMP280;45234;48.148;17.128;2022-11-15T11:46:30;99894.91;;;10.46
24740;BMP280;45234;48.148;17.128;2022-11-15T11:49:23;99894.13;;;10.45
24740;BMP280;45234;48.148;17.128;2022-11-15T11:57:59;99884.31;;;10.27
24740;BMP280;45234;48.148;17.128;2022-11-15T12:00:29;99888.25;;;10.23
24740;BMP280;45234;48.148;17.128;2022-11-15T12:03:05;99871.50;;;10.19
24740;BMP280;45234;48.148;17.128;2022-11-15T12:11:09;99859.50;;;10.12
24740;BMP280;45234;48.148;17.128;2022-11-15T12:13:37;99853.75;;;10.10
24740;BMP280;45234;48.148;17.128;2022-11-15T12:16:28;99853.31;;;10.06
24740;BMP280;45234;48.148;17.128;2022-11-15T12:19:02;99852.38;;;10.20
24740;BMP280;45234;48.148;17.128;2022-11-15T12:24:25;99842.94;;;10.06
24740;BMP280;45234;48.148;17.128;2022-11-15T12:27:01;99830.59;;;10.08
24740;BMP280;45234;48.148;17.128;2022-11-15T12:29:39;99835.63;;;10.10
24740;BMP280;45234;48.148;17.128;2022-11-15T12:32:29;99830.00;;;10.06
24740;BMP280;45234;48.148;17.128;2022-11-15T12:34:58;99827.25;;;10.14
24740;BMP280;45234;48.148;17.128;2022-11-15T12:40:28;99822.69;;;10.10
24740;BMP280;45234;48.148;17.128;2022-11-15T12:45:40;99819.31;;;10.22
24740;BMP280;45234;48.148;17.128;2022-11-15T12:53:26;99800.19;;;10.30
24740;BMP280;45234;48.148;17.128;2022-11-15T12:59:06;99797.28;;;9.92
24740;BMP280;45234;48.148;17.128;2022-11-15T13:07:08;99785.72;;;9.88
24740;BMP280;45234;48.148;17.128;2022-11-15T13:09:50;99781.19;;;10.03
24740;BMP280;45234;48.148;17.128;2022-11-15T13:17:48;99782.06;;;9.76
24740;BMP280;45234;48.148;17.128;2022-11-15T13:20:26;99777.28;;;9.73
24740;BMP280;45234;48.148;17.128;2022-11-15T13:28:18;99767.16;;;9.78
24740;BMP280;45234;48.148;17.128;2022-11-15T13:33:33;99762.69;;;10.00
24740;BMP280;45234;48.148;17.128;2022-11-15T13:36:26;99749.28;;;9.96
24740;BMP280;45234;48.148;17.128;2022-11-15T13:38:56;99748.28;;;9.90
24740;BMP280;45234;48.148;17.128;2022-11-15T13:41:29;99760.22;;;9.85
24740;BMP280;45234;48.148;17.128;2022-11-15T13:43:57;99748.84;;;9.86
24740;BMP280;45234;48.148;17.128;2022-11-15T13:51:39;99735.97;;;10.06
24740;BMP280;45234;48.148;17.128;2022-11-15T13:56:49;99732.47;;;10.26
24740;BMP280;45234;48.148;17.128;2022-11-15T14:01:55;99728.09;;;10.40
24740;BMP280;45234;48.148;17.128;2022-11-15T14:04:25;99721.16;;;10.41
24740;BMP280;45234;48.148;17.128;2022-11-15T14:06:56;99709.78;;;10.42
24740;BMP280;45234;48.148;17.128;2022-11-15T14:09:36;99716.56;;;10.36
24740;BMP280;45234;48.148;17.128;2022-11-15T14:14:52;99699.00;;;10.32
24740;BMP280;45234;48.148;17.128;2022-11-15T14:19:50;99689.63;;;10.24
24740;BMP280;45234;48.148;17.128;2022-11-15T14:22:21;99690.25;;;10.33
24740;BMP280;45234;48.148;17.128;2022-11-15T14:30:53;99685.59;;;10.08
24740;BMP280;45234;48.148;17.128;2022-11-15T14:33:33;99673.84;;;10.06
24740;BMP280;45234;48.148;17.128;2022-11-15T14:36:19;99670.28;;;10.00
24740;BMP280;45234;48.148;17.128;2022-11-15T14:38:47;99672.28;;;10.11
24740;BMP280;45234;48.148;17.128;2022-11-15T14:41:25;99667.88;;;10.12
24740;BMP280;45234;48.148;17.128;2022-11-15T14:43:53;99659.72;;;10.15
24740;BMP280;45234;48.148;17.128;2022-11-15T14:46:20;99665.91;;;10.20
24740;BMP280;45234;48.148;17.128;2022-11-15T14:48:47;99664.31;;;10.19
24740;BMP280;45234;48.148;17.128;2022-11-15T14:51:17;99665.91;;;10.20
24740;BMP280;45234;48.148;17.128;2022-11-15T14:53:45;99661.94;;;10.24
24740;BMP280;45234;48.148;17.128;2022-11-15T14:56:13;99671.50;;;10.31
24740;BMP280;45234;48.148;17.128;2022-11-15T14:58:40;99667.28;;;10.29
24740;BMP280;45234;48.148;17.128;2022-11-15T15:01:24;99662.31;;;10.21
24740;BMP280;45234;48.148;17.128;2022-11-15T15:03:52;99663.53;;;10.25
24740;BMP280;45234;48.148;17.128;2022-11-15T15:06:24;99656.75;;;10.31
24740;BMP280;45234;48.148;17.128;2022-11-15T15:08:53;99653.97;;;10.33
24740;BMP280;45234;48.148;17.128;2022-11-15T15:11:23;99649.00;;;10.31
24740;BMP280;45234;48.148;17.128;2022-11-15T15:13:51;99651.38;;;10.33
24740;BMP280;45234;48.148;17.128;2022-11-15T15:16:20;99648.00;;;10.32
24740;BMP280;45234;48.148;17.128;2022-11-15T15:18:47;99654.16;;;10.31
24740;BMP280;45234;48.148;17.128;2022-11-15T15:23:45;99647.38;;;10.17
24740;BMP280;45234;48.148;17.128;2022-11-15T15:26:15;99646.41;;;10.11
24740;BMP280;45234;48.148;17.128;2022-11-15T15:28:42;99641.22;;;10.11
24740;BMP280;45234;48.148;17.128;2022-11-15T15:31:10;99636.00;;;10.05
24740;BMP280;45234;48.148;17.128;2022-11-15T15:33:37;99636.78;;;10.05
24740;BMP280;45234;48.148;17.128;2022-11-15T15:36:09;99636.25;;;10.10
24740;BMP280;45234;48.148;17.128;2022-11-15T15:38:37;99628.84;;;10.13
24740;BMP280;45234;48.148;17.128;2022-11-15T15:41:03;99628.44;;;10.16
24740;BMP280;45234;48.148;17.128;2022-11-15T15:43:30;99638.03;;;10.09
24740;BMP280;45234;48.148;17.128;2022-11-15T15:45:57;99640.63;;;10.09
24740;BMP280;45234;48.148;17.128;2022-11-15T15:48:24;99637.19;;;10.09
24740;BMP280;45234;48.148;17.128;2022-11-15T15:50:50;99631.63;;;10.12
24740;BMP280;45234;48.148;17.128;2022-11-15T15:53:17;99624.47;;;10.20
24740;BMP280;45234;48.148;17.128;2022-11-15T15:55:44;99618.50;;;10.26
24740;BMP280;45234;48.148;17.128;2022-11-15T15:58:13;99626.84;;;10.28
24740;BMP280;45234;48.148;17.128;2022-11-15T16:00:40;99631.25;;;10.28
24740;BMP280;45234;48.148;17.128;2022-11-15T16:03:07;99636.03;;;10.31
24740;BMP280;45234;48.148;17.128;2022-11-15T16:05:34;99631.25;;;10.35
24740;BMP280;45234;48.148;17.128;2022-11-15T16:08:01;99627.25;;;10.39
24740;BMP280;45234;48.148;17.128;2022-11-15T16:10:32;99626.09;;;10.35
24740;BMP280;45234;48.148;17.128;2022-11-15T16:13:03;99628.84;;;10.40
24740;BMP280;45234;48.148;17.128;2022-11-15T16:15:31;99626.88;;;10.35
24740;BMP280;45234;48.148;17.128;2022-11-15T16:17:59;99623.66;;;10.40
24740;BMP280;45234;48.148;17.128;2022-11-15T16:23:06;99625.66;;;10.38
24740;BMP280;45234;48.148;17.128;2022-11-15T16:25:52;99628.25;;;10.38
24740;BMP280;45234;48.148;17.128;2022-11-15T16:28:32;99628.66;;;10.48
24740;BMP280;45234;48.148;17.128;2022-11-15T16:31:11;99636.41;;;10.48
24740;BMP280;45234;48.148;17.128;2022-11-15T16:33:38;99628.44;;;10.49
24740;BMP280;45234;48.148;17.128;2022-11-15T16:36:12;99622.88;;;10.46
24740;BMP280;45234;48.148;17.128;2022-11-15T16:38:40;99623.28;;;10.49
24740;BMP280;45234;48.148;17.128;2022-11-15T16:41:09;99622.09;;;10.52
24740;BMP280;45234;48.148;17.128;2022-11-15T16:43:35;99616.88;;;10.45
24740;BMP280;45234;48.148;17.128;2022-11-15T16:46:25;99618.72;;;10.32
24740;BMP280;45234;48.148;17.128;2022-11-15T16:48:52;99617.69;;;10.39
24740;BMP280;45234;48.148;17.128;2022-11-15T16:51:19;99615.72;;;10.35
24740;BMP280;45234;48.148;17.128;2022-11-15T16:53:46;99611.94;;;10.31
24740;BMP280;45234;48.148;17.128;2022-11-15T16:56:27;99605.16;;;10.23
24740;BMP280;45234;48.148;17.128;2022-11-15T16:58:57;99596.97;;;10.19
24740;BMP280;45234;48.148;17.128;2022-11-15T17:01:43;99595.00;;;10.21
24740;BMP280;45234;48.148;17.128;2022-11-15T17:04:20;99597.56;;;10.21
24740;BMP280;45234;48.148;17.128;2022-11-15T17:06:48;99600.16;;;10.21
24740;BMP280;45234;48.148;17.128;2022-11-15T17:09:18;99594.59;;;10.18
24740;BMP280;45234;48.148;17.128;2022-11-15T17:11:45;99593.41;;;10.20
24740;BMP280;45234;48.148;17.128;2022-11-15T17:14:13;99594.59;;;10.18
24740;BMP280;45234;48.148;17.128;2022-11-15T17:16:40;99601.75;;;10.22
24740;BMP280;45234;48.148;17.128;2022-11-15T17:19:16;99597.97;;;10.18
24740;BMP280;45234;48.148;17.128;2022-11-15T17:21:44;99600.97;;;10.22
24740;BMP280;45234;48.148;17.128;2022-11-15T17:24:14;99600.16;;;10.21
24740;BMP280;45234;48.148;17.128;2022-11-15T17:26:41;99599.78;;;10.24
24740;BMP280;45234;48.148;17.128;2022-11-15T17:29:08;99585.41;;;10.28
24740;BMP280;45234;48.148;17.128;2022-11-15T17:31:37;99592.97;;;10.30
24740;BMP280;45234;48.148;17.128;2022-11-15T17:34:05;99602.97;;;10.26
24740;BMP280;45234;48.148;17.128;2022-11-15T17:36:35;99594.59;;;10.24
24740;BMP280;45234;48.148;17.128;2022-11-15T17:39:04;99593.81;;;10.31
24740;BMP280;45234;48.148;17.128;2022-11-15T17:41:31;99582.25;;;10.33
24740;BMP280;45234;48.148;17.128;2022-11-15T17:43:58;99583.03;;;10.34
24740;BMP280;45234;48.148;17.128;2022-11-15T17:46:26;99582.25;;;10.33